sensor_id;sensor_type;location;lat;lon;timestamp;P1;durP1;ratioP1;P2;durP2;ratioP2
45620;SDS011;31345;51.522;10.702;2023-04-24T00:00:29;4.13;;;1.42;;
45620;SDS011;31345;51.522;10.702;2023-04-24T00:03:02;2.15;;;1.48;;
45620;SDS011;31345;51.522;10.702;2023-04-24T00:05:35;2.25;;;1.20;;
45620;SDS011;31345;51.522;10.702;2023-04-24T00:08:02;1.70;;;1.30;;
45620;SDS011;31345;51.522;10.702;2023-04-24T00:10:36;4.18;;;1.40;;
45620;SDS011;31345;51.522;10.702;2023-04-24T00:13:04;4.72;;;1.52;;
45620;SDS011;31345;51.522;10.702;2023-04-24T00:15:36;2.30;;;1.50;;
45620;SDS011;31345;51.522;10.702;2023-04-24T00:18:04;1.92;;;1.40;;
45620;SDS011;31345;51.522;10.702;2023-04-24T00:20:37;1.85;;;1.20;;
45620;SDS011;31345;51.522;10.702;2023-04-24T00:23:10;3.50;;;1.30;;
45620;SDS011;31345;51.522;10.702;2023-04-24T00:25:44;2.17;;;1.40;;
45620;SDS011;31345;51.522;10.702;2023-04-24T00:28:12;3.83;;;1.27;;
45620;SDS011;31345;51.522;10.702;2023-04-24T00:30:40;4.20;;;1.48;;
45620;SDS011;31345;51.522;10.702;2023-04-24T00:33:13;2.83;;;1.17;;
45620;SDS011;31345;51.522;10.702;2023-04-24T00:35:41;2.72;;;1.50;;
45620;SDS011;31345;51.522;10.702;2023-04-24T00:38:13;1.85;;;1.17;;
45620;SDS011;31345;51.522;10.702;2023-04-24T00:40:42;2.70;;;1.42;;
45620;SDS011;31345;51.522;10.702;2023-04-24T00:43:11;3.00;;;1.35;;
45620;SDS011;31345;51.522;10.702;2023-04-24T00:45:38;2.70;;;1.30;;
45620;SDS011;31345;51.522;10.702;2023-04-24T00:48:06;2.55;;;1.50;;
45620;SDS011;31345;51.522;10.702;2023-04-24T00:50:35;2.50;;;1.33;;
45620;SDS011;31345;51.522;10.702;2023-04-24T01:02:36;4.07;;;1.83;;
45620;SDS011;31345;51.522;10.702;2023-04-24T01:14:01;4.10;;;1.90;;
45620;SDS011;31345;51.522;10.702;2023-04-24T01:16:51;2.75;;;1.48;;
45620;SDS011;31345;51.522;10.702;2023-04-24T01:19:37;2.88;;;1.63;;
45620;SDS011;31345;51.522;10.702;2023-04-24T01:22:12;2.37;;;1.53;;
45620;SDS011;31345;51.522;10.702;2023-04-24T01:27:21;3.00;;;1.80;;
45620;SDS011;31345;51.522;10.702;2023-04-24T01:35:46;3.22;;;1.48;;
45620;SDS011;31345;51.522;10.702;2023-04-24T01:38:16;3.67;;;1.40;;
45620;SDS011;31345;51.522;10.702;2023-04-24T01:40:44;3.05;;;1.50;;
45620;SDS011;31345;51.522;10.702;2023-04-24T01:43:11;3.08;;;1.58;;
45620;SDS011;31345;51.522;10.702;2023-04-24T01:45:39;4.15;;;1.60;;
45620;SDS011;31345;51.522;10.702;2023-04-24T01:48:07;3.40;;;1.48;;
45620;SDS011;31345;51.522;10.702;2023-04-24T01:50:40;2.60;;;1.48;;
45620;SDS011;31345;51.522;10.702;2023-04-24T01:53:11;2.95;;;1.77;;
45620;SDS011;31345;51.522;10.702;2023-04-24T01:55:40;3.95;;;1.80;;
45620;SDS011;31345;51.522;10.702;2023-04-24T01:58:13;2.50;;;1.70;;
45620;SDS011;31345;51.522;10.702;2023-04-24T02:00:41;3.50;;;1.83;;
45620;SDS011;31345;51.522;10.702;2023-04-24T02:03:13;2.90;;;1.80;;
45620;SDS011;31345;51.522;10.702;2023-04-24T02:05:46;3.47;;;1.50;;
45620;SDS011;31345;51.522;10.702;2023-04-24T02:08:18;2.33;;;1.80;;
45620;SDS011;31345;51.522;10.702;2023-04-24T02:10:52;2.60;;;1.70;;
45620;SDS011;31345;51.522;10.702;2023-04-24T02:13:25;3.97;;;1.60;;
45620;SDS011;31345;51.522;10.702;2023-04-24T02:15:52;2.38;;;1.70;;
45620;SDS011;31345;51.522;10.702;2023-04-24T02:18:25;3.30;;;1.42;;
45620;SDS011;31345;51.522;10.702;2023-04-24T02:20:57;2.22;;;1.60;;
45620;SDS011;31345;51.522;10.702;2023-04-24T02:23:30;3.97;;;1.50;;
45620;SDS011;31345;51.522;10.702;2023-04-24T02:25:59;2.63;;;1.80;;
45620;SDS011;31345;51.522;10.702;2023-04-24T02:28:26;2.03;;;1.67;;
45620;SDS011;31345;51.522;10.702;2023-04-24T02:30:58;2.78;;;1.70;;
45620;SDS011;31345;51.522;10.702;2023-04-24T02:33:26;3.70;;;1.70;;
45620;SDS011;31345;51.522;10.702;2023-04-24T02:35:59;2.33;;;1.63;;
45620;SDS011;31345;51.522;10.702;2023-04-24T02:38:26;1.85;;;1.38;;
45620;SDS011;31345;51.522;10.702;2023-04-24T02:40:54;2.47;;;1.55;;
45620;SDS011;31345;51.522;10.702;2023-04-24T02:43:28;2.92;;;1.48;;
45620;SDS011;31345;51.522;10.702;2023-04-24T02:46:00;2.60;;;1.70;;
45620;SDS011;31345;51.522;10.702;2023-04-24T02:48:28;4.75;;;1.60;;
45620;SDS011;31345;51.522;10.702;2023-04-24T02:51:01;2.45;;;2.05;;
45620;SDS011;31345;51.522;10.702;2023-04-24T02:53:34;5.20;;;1.77;;
45620;SDS011;31345;51.522;10.702;2023-04-24T02:56:07;4.70;;;1.88;;
45620;SDS011;31345;51.522;10.702;2023-04-24T02:58:36;3.47;;;1.80;;
45620;SDS011;31345;51.522;10.702;2023-04-24T03:01:04;3.53;;;1.70;;
45620;SDS011;31345;51.522;10.702;2023-04-24T03:03:37;2.22;;;1.63;;
45620;SDS011;31345;51.522;10.702;2023-04-24T03:06:10;3.33;;;1.90;;
45620;SDS011;31345;51.522;10.702;2023-04-24T03:08:37;5.53;;;1.77;;
45620;SDS011;31345;51.522;10.702;2023-04-24T03:11:10;3.45;;;1.95;;
45620;SDS011;31345;51.522;10.702;2023-04-24T03:13:39;3.53;;;2.03;;
45620;SDS011;31345;51.522;10.702;2023-04-24T03:16:06;2.60;;;1.80;;
45620;SDS011;31345;51.522;10.702;2023-04-24T03:18:39;4.32;;;1.88;;
45620;SDS011;31345;51.522;10.702;2023-04-24T03:21:12;3.92;;;1.73;;
45620;SDS011;31345;51.522;10.702;2023-04-24T03:23:41;5.80;;;1.90;;
45620;SDS011;31345;51.522;10.702;2023-04-24T03:26:09;5.75;;;2.22;;
45620;SDS011;31345;51.522;10.702;2023-04-24T03:28:45;3.60;;;1.80;;
45620;SDS011;31345;51.522;10.702;2023-04-24T03:31:13;2.63;;;1.85;;
45620;SDS011;31345;51.522;10.702;2023-04-24T03:33:46;2.78;;;1.77;;
45620;SDS011;31345;51.522;10.702;2023-04-24T03:36:19;3.85;;;1.83;;
45620;SDS011;31345;51.522;10.702;2023-04-24T03:38:52;2.85;;;2.00;;
45620;SDS011;31345;51.522;10.702;2023-04-24T03:41:24;3.63;;;1.80;;
45620;SDS011;31345;51.522;10.702;2023-04-24T03:44:08;3.33;;;1.80;;
45620;SDS011;31345;51.522;10.702;2023-04-24T03:46:41;4.20;;;2.17;;
45620;SDS011;31345;51.522;10.702;2023-04-24T03:49:09;3.58;;;1.98;;
45620;SDS011;31345;51.522;10.702;2023-04-24T03:51:40;4.55;;;1.92;;
45620;SDS011;31345;51.522;10.702;2023-04-24T03:54:16;2.88;;;2.00;;
45620;SDS011;31345;51.522;10.702;2023-04-24T03:56:45;2.45;;;1.50;;
45620;SDS011;31345;51.522;10.702;2023-04-24T03:59:14;2.97;;;1.60;;
45620;SDS011;31345;51.522;10.702;2023-04-24T04:01:51;2.90;;;1.92;;
45620;SDS011;31345;51.522;10.702;2023-04-24T04:04:25;4.55;;;1.92;;
45620;SDS011;31345;51.522;10.702;2023-04-24T04:06:57;2.03;;;1.50;;
45620;SDS011;31345;51.522;10.702;2023-04-24T04:09:32;3.72;;;1.80;;
45620;SDS011;31345;51.522;10.702;2023-04-24T04:12:00;2.25;;;1.50;;
45620;SDS011;31345;51.522;10.702;2023-04-24T04:14:35;3.17;;;1.88;;
45620;SDS011;31345;51.522;10.702;2023-04-24T04:17:08;2.70;;;2.08;;
45620;SDS011;31345;51.522;10.702;2023-04-24T04:19:36;3.03;;;1.90;;
45620;SDS011;31345;51.522;10.702;2023-04-24T04:22:03;3.45;;;2.10;;
45620;SDS011;31345;51.522;10.702;2023-04-24T04:24:44;5.60;;;2.40;;
45620;SDS011;31345;51.522;10.702;2023-04-24T04:27:17;8.73;;;2.72;;
45620;SDS011;31345;51.522;10.702;2023-04-24T04:30:02;3.55;;;2.10;;
45620;SDS011;31345;51.522;10.702;2023-04-24T04:32:36;4.72;;;2.40;;
45620;SDS011;31345;51.522;10.702;2023-04-24T04:35:04;3.03;;;2.20;;
45620;SDS011;31345;51.522;10.702;2023-04-24T04:37:38;3.80;;;2.35;;
45620;SDS011;31345;51.522;10.702;2023-04-24T04:40:20;6.20;;;2.42;;
45620;SDS011;31345;51.522;10.702;2023-04-24T04:42:59;4.78;;;2.50;;
45620;SDS011;31345;51.522;10.702;2023-04-24T04:45:37;4.28;;;2.33;;
45620;SDS011;31345;51.522;10.702;2023-04-24T04:48:32;5.55;;;2.90;;
45620;SDS011;31345;51.522;10.702;2023-04-24T04:51:01;4.10;;;2.90;;
45620;SDS011;31345;51.522;10.702;2023-04-24T04:53:29;4.43;;;2.65;;
45620;SDS011;31345;51.522;10.702;2023-04-24T04:56:01;4.55;;;3.50;;
45620;SDS011;31345;51.522;10.702;2023-04-24T04:58:50;4.63;;;3.08;;
45620;SDS011;31345;51.522;10.702;2023-04-24T05:01:20;3.80;;;3.08;;
45620;SDS011;31345;51.522;10.702;2023-04-24T05:03:50;4.32;;;2.80;;
45620;SDS011;31345;51.522;10.702;2023-04-24T05:06:17;4.22;;;3.17;;
45620;SDS011;31345;51.522;10.702;2023-04-24T05:08:47;4.10;;;2.50;;
45620;SDS011;31345;51.522;10.702;2023-04-24T05:11:27;3.72;;;2.55;;
45620;SDS011;31345;51.522;10.702;2023-04-24T05:13:56;3.72;;;2.83;;
45620;SDS011;31345;51.522;10.702;2023-04-24T05:16:34;4.30;;;2.97;;
45620;SDS011;31345;51.522;10.702;2023-04-24T05:19:08;3.90;;;2.95;;
45620;SDS011;31345;51.522;10.702;2023-04-24T05:21:45;4.70;;;2.70;;
45620;SDS011;31345;51.522;10.702;2023-04-24T05:24:13;3.85;;;2.58;;
45620;SDS011;31345;51.522;10.702;2023-04-24T05:27:10;6.55;;;2.42;;
45620;SDS011;31345;51.522;10.702;2023-04-24T05:29:45;3.50;;;2.65;;
45620;SDS011;31345;51.522;10.702;2023-04-24T05:32:19;4.80;;;2.55;;
45620;SDS011;31345;51.522;10.702;2023-04-24T05:34:52;4.95;;;2.70;;
45620;SDS011;31345;51.522;10.702;2023-04-24T05:37:20;4.25;;;2.25;;
45620;SDS011;31345;51.522;10.702;2023-04-24T05:39:49;4.10;;;2.30;;
45620;SDS011;31345;51.522;10.702;2023-04-24T05:42:16;3.78;;;2.40;;
45620;SDS011;31345;51.522;10.702;2023-04-24T05:44:44;3.88;;;1.92;;
45620;SDS011;31345;51.522;10.702;2023-04-24T05:47:12;3.05;;;1.83;;
45620;SDS011;31345;51.522;10.702;2023-04-24T05:49:46;3.97;;;1.70;;
45620;SDS011;31345;51.522;10.702;2023-04-24T05:52:13;2.95;;;1.50;;
45620;SDS011;31345;51.522;10.702;2023-04-24T05:54:43;3.15;;;1.50;;
45620;SDS011;31345;51.522;10.702;2023-04-24T05:57:12;2.88;;;1.70;;
45620;SDS011;31345;51.522;10.702;2023-04-24T05:59:51;3.70;;;1.52;;
45620;SDS011;31345;51.522;10.702;2023-04-24T06:02:20;3.97;;;1.52;;
45620;SDS011;31345;51.522;10.702;2023-04-24T06:04:49;2.92;;;1.80;;
45620;SDS011;31345;51.522;10.702;2023-04-24T06:07:18;4.45;;;1.40;;
45620;SDS011;31345;51.522;10.702;2023-04-24T06:09:46;2.03;;;1.10;;
45620;SDS011;31345;51.522;10.702;2023-04-24T06:12:15;8.93;;;1.58;;
45620;SDS011;31345;51.522;10.702;2023-04-24T06:15:05;3.65;;;1.60;;
45620;SDS011;31345;51.522;10.702;2023-04-24T06:17:50;2.08;;;1.17;;
45620;SDS011;31345;51.522;10.702;2023-04-24T06:20:21;2.88;;;1.20;;
45620;SDS011;31345;51.522;10.702;2023-04-24T06:22:49;2.00;;;1.20;;
45620;SDS011;31345;51.522;10.702;2023-04-24T06:25:17;2.38;;;1.38;;
45620;SDS011;31345;51.522;10.702;2023-04-24T06:27:45;3.03;;;1.30;;
45620;SDS011;31345;51.522;10.702;2023-04-24T06:30:17;1.58;;;0.98;;
45620;SDS011;31345;51.522;10.702;2023-04-24T06:32:45;3.05;;;1.20;;
45620;SDS011;31345;51.522;10.702;2023-04-24T06:35:21;3.58;;;0.98;;
45620;SDS011;31345;51.522;10.702;2023-04-24T06:37:49;3.03;;;1.10;;
45620;SDS011;31345;51.522;10.702;2023-04-24T06:40:17;2.22;;;1.10;;
45620;SDS011;31345;51.522;10.702;2023-04-24T06:42:49;4.43;;;1.15;;
45620;SDS011;31345;51.522;10.702;2023-04-24T06:45:22;2.05;;;1.00;;
45620;SDS011;31345;51.522;10.702;2023-04-24T06:47:49;1.40;;;0.90;;
45620;SDS011;31345;51.522;10.702;2023-04-24T06:50:23;2.20;;;1.02;;
45620;SDS011;31345;51.522;10.702;2023-04-24T06:52:51;2.10;;;1.10;;
45620;SDS011;31345;51.522;10.702;2023-04-24T06:55:18;3.03;;;1.05;;
45620;SDS011;31345;51.522;10.702;2023-04-24T06:57:46;1.77;;;1.05;;
45620;SDS011;31345;51.522;10.702;2023-04-24T07:00:14;3.55;;;1.25;;
45620;SDS011;31345;51.522;10.702;2023-04-24T07:02:47;3.05;;;0.98;;
45620;SDS011;31345;51.522;10.702;2023-04-24T07:05:14;3.33;;;1.20;;
45620;SDS011;31345;51.522;10.702;2023-04-24T07:07:52;2.20;;;1.30;;
45620;SDS011;31345;51.522;10.702;2023-04-24T07:10:24;2.40;;;1.10;;
45620;SDS011;31345;51.522;10.702;2023-04-24T07:12:54;5.70;;;1.40;;
45620;SDS011;31345;51.522;10.702;2023-04-24T07:15:27;1.95;;;1.10;;
45620;SDS011;31345;51.522;10.702;2023-04-24T07:18:00;3.72;;;1.48;;
45620;SDS011;31345;51.522;10.702;2023-04-24T07:20:32;2.13;;;1.13;;
45620;SDS011;31345;51.522;10.702;2023-04-24T07:23:06;1.50;;;1.02;;
45620;SDS011;31345;51.522;10.702;2023-04-24T07:25:39;4.30;;;1.20;;
45620;SDS011;31345;51.522;10.702;2023-04-24T07:28:12;2.45;;;1.02;;
45620;SDS011;31345;51.522;10.702;2023-04-24T07:30:46;5.97;;;1.50;;
45620;SDS011;31345;51.522;10.702;2023-04-24T07:33:20;2.72;;;1.10;;
45620;SDS011;31345;51.522;10.702;2023-04-24T07:35:52;1.13;;;0.80;;
45620;SDS011;31345;51.522;10.702;2023-04-24T07:38:30;1.88;;;1.10;;
45620;SDS011;31345;51.522;10.702;2023-04-24T07:41:03;2.22;;;1.25;;
45620;SDS011;31345;51.522;10.702;2023-04-24T07:43:37;4.20;;;1.30;;
45620;SDS011;31345;51.522;10.702;2023-04-24T07:46:10;2.58;;;1.15;;
45620;SDS011;31345;51.522;10.702;2023-04-24T07:48:43;2.05;;;1.20;;
45620;SDS011;31345;51.522;10.702;2023-04-24T07:51:18;2.53;;;1.30;;
45620;SDS011;31345;51.522;10.702;2023-04-24T07:53:48;1.67;;;1.10;;
45620;SDS011;31345;51.522;10.702;2023-04-24T07:56:16;2.35;;;1.38;;
45620;SDS011;31345;51.522;10.702;2023-04-24T07:58:45;1.63;;;1.00;;
45620;SDS011;31345;51.522;10.702;2023-04-24T08:01:19;3.38;;;1.17;;
45620;SDS011;31345;51.522;10.702;2023-04-24T08:03:46;3.63;;;1.45;;
45620;SDS011;31345;51.522;10.702;2023-04-24T08:06:15;1.83;;;0.90;;
45620;SDS011;31345;51.522;10.702;2023-04-24T08:08:43;2.65;;;1.23;;
45620;SDS011;31345;51.522;10.702;2023-04-24T08:11:19;2.83;;;1.20;;
45620;SDS011;31345;51.522;10.702;2023-04-24T08:13:54;2.33;;;1.10;;
45620;SDS011;31345;51.522;10.702;2023-04-24T08:16:23;1.98;;;1.20;;
45620;SDS011;31345;51.522;10.702;2023-04-24T08:18:57;4.00;;;1.30;;
45620;SDS011;31345;51.522;10.702;2023-04-24T08:21:26;2.90;;;1.30;;
45620;SDS011;31345;51.522;10.702;2023-04-24T08:23:57;2.88;;;1.58;;
45620;SDS011;31345;51.522;10.702;2023-04-24T08:26:26;6.65;;;1.70;;
45620;SDS011;31345;51.522;10.702;2023-04-24T08:28:53;3.22;;;1.50;;
45620;SDS011;31345;51.522;10.702;2023-04-24T08:31:21;3.63;;;1.60;;
45620;SDS011;31345;51.522;10.702;2023-04-24T08:33:50;5.38;;;2.17;;
45620;SDS011;31345;51.522;10.702;2023-04-24T08:36:18;2.78;;;1.70;;
45620;SDS011;31345;51.522;10.702;2023-04-24T08:38:46;5.45;;;1.95;;
45620;SDS011;31345;51.522;10.702;2023-04-24T08:41:18;1.95;;;1.60;;
45620;SDS011;31345;51.522;10.702;2023-04-24T08:43:48;3.92;;;1.83;;
45620;SDS011;31345;51.522;10.702;2023-04-24T08:46:18;3.53;;;1.70;;
45620;SDS011;31345;51.522;10.702;2023-04-24T08:48:51;3.53;;;2.03;;
45620;SDS011;31345;51.522;10.702;2023-04-24T08:51:19;3.42;;;1.75;;
45620;SDS011;31345;51.522;10.702;2023-04-24T08:53:52;4.70;;;2.10;;
45620;SDS011;31345;51.522;10.702;2023-04-24T08:56:26;3.08;;;1.70;;
45620;SDS011;31345;51.522;10.702;2023-04-24T08:58:58;7.20;;;2.03;;
45620;SDS011;31345;51.522;10.702;2023-04-24T09:01:31;2.60;;;1.70;;
45620;SDS011;31345;51.522;10.702;2023-04-24T09:04:04;2.97;;;2.08;;
45620;SDS011;31345;51.522;10.702;2023-04-24T09:06:39;9.68;;;2.22;;
45620;SDS011;31345;51.522;10.702;2023-04-24T09:09:07;3.13;;;1.70;;
45620;SDS011;31345;51.522;10.702;2023-04-24T09:11:42;4.03;;;1.85;;
45620;SDS011;31345;51.522;10.702;2023-04-24T09:14:16;4.80;;;2.13;;
45620;SDS011;31345;51.522;10.702;2023-04-24T09:16:50;4.68;;;1.63;;
45620;SDS011;31345;51.522;10.702;2023-04-24T09:19:22;4.53;;;1.90;;
45620;SDS011;31345;51.522;10.702;2023-04-24T09:21:55;2.83;;;1.80;;
45620;SDS011;31345;51.522;10.702;2023-04-24T09:24:23;6.40;;;2.28;;
45620;SDS011;31345;51.522;10.702;2023-04-24T09:26:56;3.08;;;2.25;;
45620;SDS011;31345;51.522;10.702;2023-04-24T09:29:26;4.93;;;2.28;;
45620;SDS011;31345;51.522;10.702;2023-04-24T09:31:54;3.10;;;1.90;;
45620;SDS011;31345;51.522;10.702;2023-04-24T09:34:27;2.90;;;1.98;;
45620;SDS011;31345;51.522;10.702;2023-04-24T09:37:00;4.90;;;2.50;;
45620;SDS011;31345;51.522;10.702;2023-04-24T09:39:27;3.60;;;2.00;;
45620;SDS011;31345;51.522;10.702;2023-04-24T09:42:00;5.72;;;2.13;;
45620;SDS011;31345;51.522;10.702;2023-04-24T09:44:34;4.35;;;2.40;;
45620;SDS011;31345;51.522;10.702;2023-04-24T09:47:07;2.85;;;2.15;;
45620;SDS011;31345;51.522;10.702;2023-04-24T09:49:41;4.78;;;2.45;;
45620;SDS011;31345;51.522;10.702;2023-04-24T09:52:14;3.08;;;2.08;;
45620;SDS011;31345;51.522;10.702;2023-04-24T09:54:52;3.90;;;2.25;;
45620;SDS011;31345;51.522;10.702;2023-04-24T09:57:25;3.65;;;2.20;;
45620;SDS011;31345;51.522;10.702;2023-04-24T09:59:54;4.30;;;2.45;;
45620;SDS011;31345;51.522;10.702;2023-04-24T10:02:29;4.40;;;2.10;;
45620;SDS011;31345;51.522;10.702;2023-04-24T10:05:04;3.88;;;2.28;;
45620;SDS011;31345;51.522;10.702;2023-04-24T10:07:32;2.90;;;1.80;;
45620;SDS011;31345;51.522;10.702;2023-04-24T10:10:05;3.03;;;2.10;;
45620;SDS011;31345;51.522;10.702;2023-04-24T10:12:33;4.78;;;2.35;;
45620;SDS011;31345;51.522;10.702;2023-04-24T10:15:03;3.72;;;2.10;;
45620;SDS011;31345;51.522;10.702;2023-04-24T10:17:36;6.68;;;2.75;;
45620;SDS011;31345;51.522;10.702;2023-04-24T10:20:10;4.78;;;2.42;;
45620;SDS011;31345;51.522;10.702;2023-04-24T10:22:39;4.18;;;2.42;;
45620;SDS011;31345;51.522;10.702;2023-04-24T10:25:18;4.30;;;2.65;;
45620;SDS011;31345;51.522;10.702;2023-04-24T10:27:47;5.35;;;2.17;;
45620;SDS011;31345;51.522;10.702;2023-04-24T10:30:22;2.75;;;2.08;;
45620;SDS011;31345;51.522;10.702;2023-04-24T10:32:56;4.35;;;2.22;;
45620;SDS011;31345;51.522;10.702;2023-04-24T10:35:30;4.28;;;2.22;;
45620;SDS011;31345;51.522;10.702;2023-04-24T10:38:03;6.22;;;2.50;;
45620;SDS011;31345;51.522;10.702;2023-04-24T10:40:40;6.10;;;2.22;;
45620;SDS011;31345;51.522;10.702;2023-04-24T10:43:16;3.40;;;2.20;;
45620;SDS011;31345;51.522;10.702;2023-04-24T10:46:01;4.25;;;2.55;;
45620;SDS011;31345;51.522;10.702;2023-04-24T10:48:30;4.28;;;2.25;;
45620;SDS011;31345;51.522;10.702;2023-04-24T10:50:58;6.55;;;2.50;;
45620;SDS011;31345;51.522;10.702;2023-04-24T10:53:27;2.95;;;2.30;;
45620;SDS011;31345;51.522;10.702;2023-04-24T10:55:57;3.08;;;2.28;;
45620;SDS011;31345;51.522;10.702;2023-04-24T10:58:37;4.03;;;2.33;;
45620;SDS011;31345;51.522;10.702;2023-04-24T11:01:08;3.90;;;2.15;;
45620;SDS011;31345;51.522;10.702;2023-04-24T11:03:41;3.65;;;2.30;;
45620;SDS011;31345;51.522;10.702;2023-04-24T11:06:29;4.15;;;2.47;;
45620;SDS011;31345;51.522;10.702;2023-04-24T11:09:03;3.90;;;2.22;;
45620;SDS011;31345;51.522;10.702;2023-04-24T11:11:38;3.33;;;2.40;;
45620;SDS011;31345;51.522;10.702;2023-04-24T11:14:13;3.88;;;2.25;;
45620;SDS011;31345;51.522;10.702;2023-04-24T11:16:52;4.30;;;2.38;;
45620;SDS011;31345;51.522;10.702;2023-04-24T11:19:21;3.50;;;2.08;;
45620;SDS011;31345;51.522;10.702;2023-04-24T11:21:55;5.00;;;2.78;;
45620;SDS011;31345;51.522;10.702;2023-04-24T11:24:26;3.08;;;2.50;;
45620;SDS011;31345;51.522;10.702;2023-04-24T11:27:05;3.13;;;2.42;;
45620;SDS011;31345;51.522;10.702;2023-04-24T11:29:40;4.90;;;2.72;;
45620;SDS011;31345;51.522;10.702;2023-04-24T11:32:23;3.85;;;2.65;;
45620;SDS011;31345;51.522;10.702;2023-04-24T11:34:58;3.20;;;2.50;;
45620;SDS011;31345;51.522;10.702;2023-04-24T11:37:35;3.85;;;2.40;;
45620;SDS011;31345;51.522;10.702;2023-04-24T11:40:10;4.97;;;1.90;;
45620;SDS011;31345;51.522;10.702;2023-04-24T11:42:39;3.22;;;2.15;;
45620;SDS011;31345;51.522;10.702;2023-04-24T11:45:13;5.47;;;2.17;;
45620;SDS011;31345;51.522;10.702;2023-04-24T11:47:48;2.42;;;1.50;;
45620;SDS011;31345;51.522;10.702;2023-04-24T11:50:22;3.75;;;1.30;;
45620;SDS011;31345;51.522;10.702;2023-04-24T11:52:56;1.52;;;1.20;;
45620;SDS011;31345;51.522;10.702;2023-04-24T11:55:30;2.70;;;1.70;;
45620;SDS011;31345;51.522;10.702;2023-04-24T11:58:02;3.38;;;1.65;;
45620;SDS011;31345;51.522;10.702;2023-04-24T12:00:35;4.40;;;1.52;;
45620;SDS011;31345;51.522;10.702;2023-04-24T12:03:11;2.25;;;1.50;;
45620;SDS011;31345;51.522;10.702;2023-04-24T12:05:39;2.42;;;1.45;;
45620;SDS011;31345;51.522;10.702;2023-04-24T12:08:12;3.95;;;1.50;;
45620;SDS011;31345;51.522;10.702;2023-04-24T12:10:54;2.40;;;1.30;;
45620;SDS011;31345;51.522;10.702;2023-04-24T12:13:26;19.67;;;2.75;;
45620;SDS011;31345;51.522;10.702;2023-04-24T12:15:54;1.83;;;1.42;;
45620;SDS011;31345;51.522;10.702;2023-04-24T12:18:25;3.53;;;1.75;;
45620;SDS011;31345;51.522;10.702;2023-04-24T12:23:49;2.20;;;1.42;;
45620;SDS011;31345;51.522;10.702;2023-04-24T12:26:22;9.07;;;1.65;;
45620;SDS011;31345;51.522;10.702;2023-04-24T12:28:51;2.63;;;1.48;;
45620;SDS011;31345;51.522;10.702;2023-04-24T12:31:18;1.70;;;0.90;;
45620;SDS011;31345;51.522;10.702;2023-04-24T12:33:54;3.78;;;1.40;;
45620;SDS011;31345;51.522;10.702;2023-04-24T12:36:22;1.92;;;1.17;;
45620;SDS011;31345;51.522;10.702;2023-04-24T12:38:52;4.22;;;1.50;;
45620;SDS011;31345;51.522;10.702;2023-04-24T12:41:20;2.83;;;1.10;;
45620;SDS011;31345;51.522;10.702;2023-04-24T12:43:53;1.98;;;1.23;;
45620;SDS011;31345;51.522;10.702;2023-04-24T12:46:22;2.08;;;1.40;;
45620;SDS011;31345;51.522;10.702;2023-04-24T12:48:56;2.10;;;1.20;;
45620;SDS011;31345;51.522;10.702;2023-04-24T12:51:24;1.88;;;1.25;;
45620;SDS011;31345;51.522;10.702;2023-04-24T12:53:52;3.20;;;1.52;;
45620;SDS011;31345;51.522;10.702;2023-04-24T12:56:24;4.63;;;1.65;;
45620;SDS011;31345;51.522;10.702;2023-04-24T12:58:51;2.22;;;1.45;;
45620;SDS011;31345;51.522;10.702;2023-04-24T13:01:19;1.90;;;1.13;;
45620;SDS011;31345;51.522;10.702;2023-04-24T13:03:52;1.55;;;1.40;;
45620;SDS011;31345;51.522;10.702;2023-04-24T13:06:21;1.90;;;1.02;;
45620;SDS011;31345;51.522;10.702;2023-04-24T13:08:53;1.25;;;0.90;;
45620;SDS011;31345;51.522;10.702;2023-04-24T13:11:29;1.50;;;1.00;;
45620;SDS011;31345;51.522;10.702;2023-04-24T13:14:01;1.50;;;1.00;;
45620;SDS011;31345;51.522;10.702;2023-04-24T13:16:34;2.10;;;0.93;;
45620;SDS011;31345;51.522;10.702;2023-04-24T13:19:07;2.53;;;1.10;;
45620;SDS011;31345;51.522;10.702;2023-04-24T13:21:41;2.42;;;0.68;;
45620;SDS011;31345;51.522;10.702;2023-04-24T13:24:09;1.50;;;0.88;;
45620;SDS011;31345;51.522;10.702;2023-04-24T13:26:37;2.08;;;0.70;;
45620;SDS011;31345;51.522;10.702;2023-04-24T13:29:09;1.52;;;0.80;;
45620;SDS011;31345;51.522;10.702;2023-04-24T13:31:37;1.38;;;1.05;;
45620;SDS011;31345;51.522;10.702;2023-04-24T13:34:10;2.63;;;0.75;;
45620;SDS011;31345;51.522;10.702;2023-04-24T13:36:37;1.92;;;0.70;;
45620;SDS011;31345;51.522;10.702;2023-04-24T13:39:11;0.70;;;0.55;;
45620;SDS011;31345;51.522;10.702;2023-04-24T13:41:44;0.90;;;0.50;;
45620;SDS011;31345;51.522;10.702;2023-04-24T13:44:19;2.30;;;0.60;;
45620;SDS011;31345;51.522;10.702;2023-04-24T13:46:53;1.35;;;0.60;;
45620;SDS011;31345;51.522;10.702;2023-04-24T13:49:28;1.45;;;0.60;;
45620;SDS011;31345;51.522;10.702;2023-04-24T13:51:55;0.82;;;0.60;;
45620;SDS011;31345;51.522;10.702;2023-04-24T13:54:24;1.08;;;0.60;;
45620;SDS011;31345;51.522;10.702;2023-04-24T13:56:52;1.20;;;0.68;;
45620;SDS011;31345;51.522;10.702;2023-04-24T13:59:20;2.72;;;0.57;;
45620;SDS011;31345;51.522;10.702;2023-04-24T14:01:48;0.50;;;0.47;;
45620;SDS011;31345;51.522;10.702;2023-04-24T14:04:21;1.40;;;0.70;;
45620;SDS011;31345;51.522;10.702;2023-04-24T14:06:48;0.88;;;0.60;;
45620;SDS011;31345;51.522;10.702;2023-04-24T14:09:22;1.70;;;0.50;;
45620;SDS011;31345;51.522;10.702;2023-04-24T14:11:52;0.65;;;0.50;;
45620;SDS011;31345;51.522;10.702;2023-04-24T14:14:20;0.43;;;0.40;;
45620;SDS011;31345;51.522;10.702;2023-04-24T14:16:47;0.95;;;0.40;;
45620;SDS011;31345;51.522;10.702;2023-04-24T14:19:20;2.50;;;0.60;;
45620;SDS011;31345;51.522;10.702;2023-04-24T14:21:52;0.40;;;0.40;;
45620;SDS011;31345;51.522;10.702;2023-04-24T14:24:27;4.53;;;0.63;;
45620;SDS011;31345;51.522;10.702;2023-04-24T14:27:01;0.73;;;0.60;;
45620;SDS011;31345;51.522;10.702;2023-04-24T14:29:29;2.30;;;0.70;;
45620;SDS011;31345;51.522;10.702;2023-04-24T14:32:01;1.33;;;0.80;;
45620;SDS011;31345;51.522;10.702;2023-04-24T14:34:29;1.63;;;0.70;;
45620;SDS011;31345;51.522;10.702;2023-04-24T14:37:01;0.65;;;0.60;;
45620;SDS011;31345;51.522;10.702;2023-04-24T14:39:34;1.13;;;0.80;;
45620;SDS011;31345;51.522;10.702;2023-04-24T14:42:08;1.08;;;0.98;;
45620;SDS011;31345;51.522;10.702;2023-04-24T14:44:41;2.80;;;0.82;;
45620;SDS011;31345;51.522;10.702;2023-04-24T14:47:08;0.82;;;0.82;;
45620;SDS011;31345;51.522;10.702;2023-04-24T14:49:41;3.03;;;0.75;;
45620;SDS011;31345;51.522;10.702;2023-04-24T14:52:14;2.05;;;0.75;;
45620;SDS011;31345;51.522;10.702;2023-04-24T14:54:42;1.88;;;0.82;;
45620;SDS011;31345;51.522;10.702;2023-04-24T14:57:16;2.47;;;0.70;;
45620;SDS011;31345;51.522;10.702;2023-04-24T14:59:44;1.95;;;0.70;;
45620;SDS011;31345;51.522;10.702;2023-04-24T15:02:11;1.02;;;0.80;;
45620;SDS011;31345;51.522;10.702;2023-04-24T15:04:39;2.67;;;0.80;;
45620;SDS011;31345;51.522;10.702;2023-04-24T15:07:12;1.48;;;0.82;;
45620;SDS011;31345;51.522;10.702;2023-04-24T15:09:44;1.00;;;0.90;;
45620;SDS011;31345;51.522;10.702;2023-04-24T15:12:13;1.00;;;0.88;;
45620;SDS011;31345;51.522;10.702;2023-04-24T15:14:47;4.45;;;1.10;;
45620;SDS011;31345;51.522;10.702;2023-04-24T15:17:20;2.55;;;1.35;;
45620;SDS011;31345;51.522;10.702;2023-04-24T15:19:47;3.83;;;1.30;;
45620;SDS011;31345;51.522;10.702;2023-04-24T15:22:20;2.03;;;1.20;;
45620;SDS011;31345;51.522;10.702;2023-04-24T15:24:52;3.88;;;1.58;;
45620;SDS011;31345;51.522;10.702;2023-04-24T15:27:25;2.33;;;1.48;;
45620;SDS011;31345;51.522;10.702;2023-04-24T15:29:59;2.40;;;1.50;;